Airfield :
LOGIN :

Register | Disclaimer

   EN    FR    IT 

 










Legend :    VFR   Marginal VFR   IFR   Intensive IFR   Very Intensive IFR
Visi :
Ceiling :
>= 8 km
>= 3000ft
5 to 8 km
1000 to 3000 ft
1500m to 5 km
500 to 1000 ft
800 to 1500m
200 to 500 ft
< 800m
< 200 ft
Symbols :   Thunderstorms  Fog  Heavy snow  Heavy precipitations  Wind > 20 kt
SIGMETs :     Misc.  Thunderstorms  Icing  Turbulence  Mountain Waves  Volcanic Ashes







- Airport Elevation : 1 ft
- Download approach charts


EGCK - Caernarfon

CURRENT METAR :
  • 110050Z AUTO 17011KT 9999 OVC007/// 09/08 Q1024

EXPIRED METARs :
  • 110020Z AUTO 16013KT 9999 OVC005/// 09/08 Q1024
  • 102350Z AUTO 17013KT 9999 OVC009/// 09/07 Q1025
  • 102320Z AUTO 16013KT 9999 BKN016/// OVC028/// 09/07 Q1025
  • 102250Z AUTO 17011KT 9999 FEW011/// BKN017/// OVC030/// 09/07 Q1025
  • 102220Z AUTO 17011KT 9999 SCT020/// BKN038/// 09/07 Q1025

TAF TAF EGCK
Valid from the 11 at 00:00 until the 11 at 09:00 UTC


102303Z 1100/1109 18008KT 9999 BKN020
TEMPO 1100/1109 BKN010
PROB30
TEMPO 1100/1109 7000 -RADZ BKN006
No reported NOTAMs for that airfield.



MET'MAP, your aeronautical weather chart ! - Copyright ORBIFLY December 2007 - Disclaimer

ORBIFLY MET'MAP TEAM :

Programming & Development : Alexandra Zaïnal
Concept & Development : Baudouin d'Aumeries
Co-Development & Prog : Marc-Olivier Méhu
Technical & hardware support : Manuel Goepfert

Contact : metmap@orbifly.com




SOURCES & CREDITS :

   NOAA